Weather at Cordovado Airfield

Public forecast

Using degrees Celsius for public forecast. Weather courtesy of forecast.io.

Closest aviation weather report (METAR) to Cordovado Airfield

Closest report is Udine-Rivolto Air Base, 10.8 nm (19.9 km) NE.

2024/07/14 15:55 (retrieved 1 hour ago)

LIPI 141555Z 16004KT 9999 FEW040 31/16 Q1010

Closest aviation forecast (TAF) to Cordovado Airfield

Closest forecast is Trieste–Friuli Venezia Giulia Airport, 24.3 nm (44.9 km) E.

2024/07/14 12:20 (retrieved 5 hours ago)

TAF LIPQ 141100Z 1412/1512 19010KT 9999 FEW070 PROB40 TEMPO 1412/1415 SHRA BECMG 1415/1417 VRB05KT